»·PEaware :: SKY3539 KORS-KEAT

SKY3539 :: KORS-KEAT

FLIGHT INFORMATION

Flight Status: Arrived
Operator:
Sky High Charters
More flights by this operator :: More flights under this callsign
Pilot: Joerg P. (23850)
Aircraft: PIPER PA-32 SARATOGA
(PA32)
More flights by this aircraft type
Origin: KORS Orcas I
United States
Destination: KEAT Pangborn Meml
United States
More flights between these airports :: More routes between these airports
Route: +FEGBA2 FEGBA SEA V2 ELN V25 EAT
File this flight plan on PilotEdge
Remarks: +CW / SCENARIO 3
Altitude:
(Current/Filed)
9,000ft
Speed:
(Current/Filed)
125kts
Departed: 19-Apr-19 06:29 PM
Arrived: 19-Apr-19 08:15 PM
Distance/Time
Traveled:
134nm/1:46
Distance/Time
To Go:
Arrived

Flight Plot

Page will automatically refresh every two minutes.

Flight plan parsing failed; only flown route is shown


Map Options




Map Legend


Flown Route
Filed Route
Departure Airport
Arrival Airport
Navaid (VOR, NDB)
Fix

Horizontal Profiles

Position Reports

Time Latitude Longitude Heading Altitude Ground
Speed
19-Apr-19 18:21 48.711851 -122.909978 172 27ft 0kts
19-Apr-19 18:22 48.711851 -122.909978 172 27ft 0kts
19-Apr-19 18:23 48.711851 -122.909978 172 27ft 0kts
19-Apr-19 18:24 48.711851 -122.909978 172 27ft 0kts
19-Apr-19 18:25 48.711851 -122.909978 172 27ft 0kts
19-Apr-19 18:26 48.711851 -122.909978 172 27ft 0kts
19-Apr-19 18:27 48.711826 -122.910189 326 27ft 6kts
19-Apr-19 18:28 48.696908 -122.910112 179 514ft 81kts
19-Apr-19 18:29 48.676042 -122.904505 166 1425ft 76kts
19-Apr-19 18:30 48.656140 -122.897925 176 2193ft 74kts
19-Apr-19 18:31 48.636196 -122.889468 157 3014ft 76kts
19-Apr-19 18:32 48.614503 -122.889740 185 3783ft 78kts
19-Apr-19 18:33 48.593770 -122.902942 199 4471ft 81kts
19-Apr-19 18:34 48.570647 -122.906836 184 5273ft 82kts
19-Apr-19 18:35 48.547192 -122.908303 197 6108ft 83kts
19-Apr-19 18:36 48.524072 -122.903796 162 6880ft 87kts
19-Apr-19 18:37 48.500866 -122.892221 172 7616ft 86kts
19-Apr-19 18:38 48.477084 -122.886027 166 8266ft 87kts
19-Apr-19 18:39 48.460520 -122.862378 144 8791ft 94kts
19-Apr-19 18:40 48.440748 -122.836087 152 9391ft 95kts
19-Apr-19 18:41 48.417462 -122.817983 157 9968ft 95kts
19-Apr-19 18:42 48.395777 -122.785319 132 10142ft 124kts
19-Apr-19 18:43 48.366492 -122.761319 179 10031ft 121kts
19-Apr-19 18:44 48.333024 -122.751891 169 10007ft 122kts
19-Apr-19 18:45 48.300259 -122.733904 169 10005ft 122kts
19-Apr-19 18:46 48.267135 -122.717881 169 10003ft 122kts
19-Apr-19 18:47 48.234181 -122.702188 169 10003ft 122kts
19-Apr-19 18:48 48.201255 -122.686882 170 10002ft 122kts
19-Apr-19 18:49 48.168287 -122.672913 171 10004ft 121kts
19-Apr-19 18:50 48.135474 -122.658880 170 10005ft 122kts
19-Apr-19 18:51 48.102764 -122.644945 171 10001ft 121kts
19-Apr-19 18:52 48.070325 -122.631031 170 10038ft 120kts
19-Apr-19 18:53 48.037583 -122.617174 171 10044ft 122kts
19-Apr-19 18:54 48.004474 -122.603288 171 10040ft 121kts
19-Apr-19 18:55 47.971612 -122.589022 171 10040ft 121kts
19-Apr-19 18:56 47.938869 -122.574671 171 10042ft 121kts
19-Apr-19 18:57 47.905990 -122.560270 171 10044ft 121kts
19-Apr-19 18:58 47.873122 -122.545573 170 10048ft 122kts
19-Apr-19 18:59 47.840336 -122.530276 170 10050ft 122kts
19-Apr-19 19:00 47.807521 -122.515169 169 10050ft 122kts
19-Apr-19 19:01 47.774915 -122.498480 167 10050ft 123kts
19-Apr-19 19:02 47.742544 -122.480451 165 10050ft 123kts
19-Apr-19 19:03 47.710510 -122.459949 163 10050ft 124kts
19-Apr-19 19:04 47.678600 -122.439324 163 10050ft 124kts
19-Apr-19 19:05 47.646544 -122.419610 165 10050ft 123kts
19-Apr-19 19:06 47.614190 -122.402082 168 10050ft 123kts
19-Apr-19 19:07 47.581553 -122.385997 169 10050ft 122kts
19-Apr-19 19:08 47.564637 -122.343461 99 10029ft 140kts
19-Apr-19 19:09 47.559190 -122.288220 105 10031ft 139kts
19-Apr-19 19:10 47.551982 -122.231147 105 10031ft 139kts
19-Apr-19 19:11 47.543836 -122.176471 128 10029ft 132kts
19-Apr-19 19:12 47.518347 -122.139322 145 10029ft 128kts
19-Apr-19 19:13 47.491758 -122.103754 145 10021ft 128kts
19-Apr-19 19:14 47.465135 -122.068284 145 10013ft 128kts
19-Apr-19 19:15 47.438411 -122.032643 145 10004ft 128kts
19-Apr-19 19:16 47.411854 -121.996914 144 9996ft 128kts
19-Apr-19 19:17 47.385891 -121.962353 145 9988ft 128kts
19-Apr-19 19:18 47.359336 -121.926828 145 9979ft 128kts
19-Apr-19 19:19 47.346354 -121.875705 103 9977ft 139kts
19-Apr-19 19:20 47.339241 -121.819165 107 9977ft 138kts
19-Apr-19 19:21 47.328897 -121.763921 111 9977ft 137kts
19-Apr-19 19:22 47.316709 -121.709864 114 9978ft 136kts
19-Apr-19 19:23 47.303888 -121.656382 115 9978ft 137kts
19-Apr-19 19:24 47.290675 -121.602995 115 9978ft 137kts
19-Apr-19 19:25 47.277508 -121.549862 115 9978ft 137kts
19-Apr-19 19:26 47.264577 -121.497317 116 10109ft 131kts
19-Apr-19 19:27 47.252000 -121.444164 115 10116ft 137kts
19-Apr-19 19:28 47.239072 -121.389895 115 10116ft 138kts
19-Apr-19 19:29 47.226462 -121.337216 116 10112ft 138kts
19-Apr-19 19:30 47.213851 -121.283851 116 10113ft 138kts
19-Apr-19 19:31 47.201245 -121.229676 116 10113ft 138kts
19-Apr-19 19:32 47.188559 -121.175183 116 10106ft 138kts
19-Apr-19 19:33 47.175874 -121.120729 116 10083ft 139kts
19-Apr-19 19:34 47.164268 -121.066246 113 10062ft 140kts
19-Apr-19 19:35 47.152878 -121.011604 115 10040ft 139kts
19-Apr-19 19:36 47.140342 -120.957072 115 10017ft 139kts
19-Apr-19 19:37 47.127697 -120.902072 115 10015ft 138kts
19-Apr-19 19:38 47.115350 -120.848288 116 10015ft 139kts
19-Apr-19 19:39 47.102824 -120.793928 115 10015ft 139kts
19-Apr-19 19:40 47.090318 -120.739774 115 10016ft 139kts
19-Apr-19 19:41 47.077728 -120.685364 115 10016ft 139kts
19-Apr-19 19:42 47.065140 -120.631104 115 10016ft 139kts
19-Apr-19 19:43 47.051650 -120.574624 113 9744ft 153kts
19-Apr-19 19:44 47.039331 -120.511084 113 9090ft 156kts
19-Apr-19 19:46 47.035290 -120.452920 40 9015ft 145kts
19-Apr-19 19:47 47.070826 -120.428989 11 9037ft 137kts
19-Apr-19 19:48 47.106749 -120.406424 18 9032ft 139kts
19-Apr-19 19:49 47.142303 -120.382733 18 9031ft 138kts
19-Apr-19 19:50 47.177401 -120.359494 18 9032ft 137kts
19-Apr-19 19:51 47.210981 -120.337149 18 9028ft 137kts
19-Apr-19 19:52 47.245502 -120.314422 18 9028ft 136kts
19-Apr-19 19:53 47.280193 -120.291672 18 9029ft 136kts
19-Apr-19 19:54 47.315093 -120.268747 18 9029ft 136kts
19-Apr-19 19:55 47.349827 -120.245851 18 9029ft 136kts
19-Apr-19 19:56 47.384548 -120.221142 26 9024ft 138kts
19-Apr-19 19:57 47.397461 -120.166682 86 8480ft 156kts
19-Apr-19 19:58 47.401295 -120.101704 88 7783ft 154kts
19-Apr-19 19:59 47.401477 -120.037100 93 7049ft 153kts
19-Apr-19 20:00 47.398551 -119.973337 95 6259ft 152kts
19-Apr-19 20:01 47.387628 -119.914557 129 5574ft 144kts
19-Apr-19 20:02 47.360658 -119.871670 154 5004ft 135kts
19-Apr-19 20:03 47.326693 -119.860690 172 5008ft 119kts
19-Apr-19 20:04 47.293749 -119.850974 189 4989ft 117kts
19-Apr-19 20:05 47.265859 -119.873577 224 4926ft 116kts
19-Apr-19 20:06 47.242678 -119.910683 230 4445ft 122kts
19-Apr-19 20:07 47.230006 -119.956768 259 4094ft 120kts
19-Apr-19 20:07 47.235611 -119.996671 294 3968ft 118kts
19-Apr-19 20:09 47.262551 -120.038649 317 3914ft 121kts
19-Apr-19 20:10 47.293871 -120.064675 326 3394ft 132kts
19-Apr-19 20:10 47.320583 -120.086761 325 3032ft 124kts
19-Apr-19 20:12 47.353171 -120.114369 314 2881ft 110kts
19-Apr-19 20:12 47.368601 -120.144158 300 2493ft 108kts
19-Apr-19 20:14 47.384413 -120.185685 307 1637ft 89kts
19-Apr-19 20:14 47.395984 -120.202930 316 1252ft 39kts
19-Apr-19 20:15 47.399916 -120.208569 317 1252ft 14kts
19-Apr-19 20:16 47.401684 -120.207624 317 1252ft 0kts

Navigation Log

Ident Type
Flight plan parsing failed, navigation log unavailable